sensor_id;sensor_type;location;lat;lon;timestamp;P1;durP1;ratioP1;P2;durP2;ratioP2
72517;SDS011;60540;51.178;6.738;2023-05-10T00:02:09;10.00;;;5.38;;
72517;SDS011;60540;51.178;6.738;2023-05-10T00:04:35;11.00;;;5.07;;
72517;SDS011;60540;51.178;6.738;2023-05-10T00:07:00;11.00;;;5.72;;
72517;SDS011;60540;51.178;6.738;2023-05-10T00:09:26;10.07;;;4.95;;
72517;SDS011;60540;51.178;6.738;2023-05-10T00:11:52;9.40;;;5.07;;
72517;SDS011;60540;51.178;6.738;2023-05-10T00:14:18;10.90;;;5.43;;
72517;SDS011;60540;51.178;6.738;2023-05-10T00:16:44;10.75;;;4.85;;
72517;SDS011;60540;51.178;6.738;2023-05-10T00:19:10;9.05;;;4.60;;
72517;SDS011;60540;51.178;6.738;2023-05-10T00:21:36;11.90;;;5.63;;
72517;SDS011;60540;51.178;6.738;2023-05-10T00:24:01;10.27;;;5.40;;
72517;SDS011;60540;51.178;6.738;2023-05-10T00:26:27;9.98;;;5.15;;
72517;SDS011;60540;51.178;6.738;2023-05-10T00:28:53;12.48;;;6.00;;
72517;SDS011;60540;51.178;6.738;2023-05-10T00:31:19;11.93;;;5.53;;
72517;SDS011;60540;51.178;6.738;2023-05-10T00:33:44;11.85;;;5.53;;
72517;SDS011;60540;51.178;6.738;2023-05-10T00:36:11;12.70;;;6.13;;
72517;SDS011;60540;51.178;6.738;2023-05-10T00:38:36;11.80;;;5.78;;
72517;SDS011;60540;51.178;6.738;2023-05-10T00:41:02;10.00;;;5.22;;
72517;SDS011;60540;51.178;6.738;2023-05-10T00:43:28;11.02;;;5.70;;
72517;SDS011;60540;51.178;6.738;2023-05-10T00:45:54;9.57;;;4.88;;
72517;SDS011;60540;51.178;6.738;2023-05-10T00:48:20;9.38;;;4.88;;
72517;SDS011;60540;51.178;6.738;2023-05-10T00:50:46;10.13;;;5.20;;
72517;SDS011;60540;51.178;6.738;2023-05-10T00:53:12;10.07;;;4.80;;
72517;SDS011;60540;51.178;6.738;2023-05-10T00:55:38;11.57;;;5.03;;
72517;SDS011;60540;51.178;6.738;2023-05-10T00:58:04;10.38;;;4.97;;
72517;SDS011;60540;51.178;6.738;2023-05-10T01:00:30;9.43;;;4.55;;
72517;SDS011;60540;51.178;6.738;2023-05-10T01:02:57;9.93;;;4.95;;
72517;SDS011;60540;51.178;6.738;2023-05-10T01:05:23;8.82;;;4.22;;
72517;SDS011;60540;51.178;6.738;2023-05-10T01:07:49;8.77;;;4.65;;
72517;SDS011;60540;51.178;6.738;2023-05-10T01:10:15;8.60;;;4.45;;
72517;SDS011;60540;51.178;6.738;2023-05-10T01:12:41;7.15;;;4.45;;
72517;SDS011;60540;51.178;6.738;2023-05-10T01:15:08;8.55;;;4.32;;
72517;SDS011;60540;51.178;6.738;2023-05-10T01:17:36;9.50;;;4.47;;
72517;SDS011;60540;51.178;6.738;2023-05-10T01:20:03;8.73;;;4.22;;
72517;SDS011;60540;51.178;6.738;2023-05-10T01:35:55;9.15;;;4.70;;
72517;SDS011;60540;51.178;6.738;2023-05-10T01:38:36;8.43;;;4.80;;
72517;SDS011;60540;51.178;6.738;2023-05-10T01:41:17;8.68;;;5.00;;
72517;SDS011;60540;51.178;6.738;2023-05-10T01:46:35;10.63;;;5.15;;
72517;SDS011;60540;51.178;6.738;2023-05-10T01:49:08;9.35;;;4.68;;
72517;SDS011;60540;51.178;6.738;2023-05-10T01:51:38;10.30;;;4.88;;
72517;SDS011;60540;51.178;6.738;2023-05-10T01:54:07;8.23;;;4.60;;
72517;SDS011;60540;51.178;6.738;2023-05-10T01:56:34;8.88;;;4.93;;
72517;SDS011;60540;51.178;6.738;2023-05-10T02:01:26;9.18;;;3.75;;
72517;SDS011;60540;51.178;6.738;2023-05-10T02:03:52;6.85;;;3.70;;
72517;SDS011;60540;51.178;6.738;2023-05-10T02:06:19;9.25;;;3.63;;
72517;SDS011;60540;51.178;6.738;2023-05-10T02:08:46;7.90;;;3.47;;
72517;SDS011;60540;51.178;6.738;2023-05-10T02:11:12;8.63;;;3.83;;
72517;SDS011;60540;51.178;6.738;2023-05-10T02:13:39;8.32;;;4.03;;
72517;SDS011;60540;51.178;6.738;2023-05-10T02:56:05;5.35;;;3.08;;
72517;SDS011;60540;51.178;6.738;2023-05-10T02:58:35;7.30;;;3.45;;
72517;SDS011;60540;51.178;6.738;2023-05-10T03:01:00;8.05;;;3.75;;
72517;SDS011;60540;51.178;6.738;2023-05-10T03:03:26;8.10;;;3.55;;
72517;SDS011;60540;51.178;6.738;2023-05-10T03:05:52;6.95;;;3.60;;
72517;SDS011;60540;51.178;6.738;2023-05-10T03:08:21;7.10;;;4.30;;
72517;SDS011;60540;51.178;6.738;2023-05-10T03:10:53;6.35;;;3.42;;
72517;SDS011;60540;51.178;6.738;2023-05-10T03:16:42;8.10;;;3.97;;
72517;SDS011;60540;51.178;6.738;2023-05-10T03:19:22;6.30;;;3.20;;
72517;SDS011;60540;51.178;6.738;2023-05-10T03:21:50;5.72;;;2.80;;
72517;SDS011;60540;51.178;6.738;2023-05-10T03:26:43;6.40;;;3.10;;
72517;SDS011;60540;51.178;6.738;2023-05-10T03:29:09;6.88;;;3.63;;
72517;SDS011;60540;51.178;6.738;2023-05-10T03:31:35;8.32;;;3.53;;
72517;SDS011;60540;51.178;6.738;2023-05-10T03:34:01;7.75;;;3.45;;
72517;SDS011;60540;51.178;6.738;2023-05-10T03:36:27;7.10;;;3.65;;
72517;SDS011;60540;51.178;6.738;2023-05-10T03:38:52;7.15;;;3.22;;
72517;SDS011;60540;51.178;6.738;2023-05-10T03:41:18;9.30;;;5.00;;
72517;SDS011;60540;51.178;6.738;2023-05-10T03:43:44;9.95;;;4.40;;
72517;SDS011;60540;51.178;6.738;2023-05-10T03:46:09;8.70;;;4.13;;
72517;SDS011;60540;51.178;6.738;2023-05-10T03:48:35;9.63;;;4.57;;
72517;SDS011;60540;51.178;6.738;2023-05-10T03:51:01;11.02;;;4.07;;
72517;SDS011;60540;51.178;6.738;2023-05-10T03:53:27;10.43;;;4.85;;
72517;SDS011;60540;51.178;6.738;2023-05-10T03:55:53;9.48;;;4.38;;
72517;SDS011;60540;51.178;6.738;2023-05-10T03:58:18;9.70;;;4.72;;
72517;SDS011;60540;51.178;6.738;2023-05-10T04:00:44;10.02;;;4.40;;
72517;SDS011;60540;51.178;6.738;2023-05-10T04:03:11;10.98;;;5.75;;
72517;SDS011;60540;51.178;6.738;2023-05-10T04:05:37;9.38;;;4.72;;
72517;SDS011;60540;51.178;6.738;2023-05-10T04:08:03;10.55;;;5.18;;
72517;SDS011;60540;51.178;6.738;2023-05-10T04:10:29;12.90;;;5.82;;
72517;SDS011;60540;51.178;6.738;2023-05-10T04:12:55;12.18;;;6.20;;
72517;SDS011;60540;51.178;6.738;2023-05-10T04:15:20;14.75;;;6.55;;
72517;SDS011;60540;51.178;6.738;2023-05-10T04:17:46;11.52;;;6.05;;
72517;SDS011;60540;51.178;6.738;2023-05-10T04:20:12;14.13;;;6.15;;
72517;SDS011;60540;51.178;6.738;2023-05-10T04:22:38;14.75;;;7.05;;
72517;SDS011;60540;51.178;6.738;2023-05-10T04:25:04;14.68;;;7.65;;
72517;SDS011;60540;51.178;6.738;2023-05-10T04:27:30;16.55;;;7.40;;
72517;SDS011;60540;51.178;6.738;2023-05-10T04:29:56;13.98;;;7.35;;
72517;SDS011;60540;51.178;6.738;2023-05-10T04:32:22;18.27;;;8.20;;
72517;SDS011;60540;51.178;6.738;2023-05-10T04:34:48;16.15;;;6.93;;
72517;SDS011;60540;51.178;6.738;2023-05-10T04:37:14;18.95;;;9.35;;
72517;SDS011;60540;51.178;6.738;2023-05-10T04:39:39;18.35;;;8.00;;
72517;SDS011;60540;51.178;6.738;2023-05-10T04:42:05;18.13;;;9.00;;
72517;SDS011;60540;51.178;6.738;2023-05-10T04:44:31;18.90;;;7.95;;
72517;SDS011;60540;51.178;6.738;2023-05-10T04:46:58;19.85;;;9.38;;
72517;SDS011;60540;51.178;6.738;2023-05-10T04:49:24;18.48;;;8.27;;
72517;SDS011;60540;51.178;6.738;2023-05-10T04:51:50;22.58;;;9.57;;
72517;SDS011;60540;51.178;6.738;2023-05-10T04:54:15;15.88;;;9.00;;
72517;SDS011;60540;51.178;6.738;2023-05-10T04:56:41;20.13;;;10.27;;
72517;SDS011;60540;51.178;6.738;2023-05-10T04:59:07;17.58;;;9.23;;
72517;SDS011;60540;51.178;6.738;2023-05-10T05:01:33;20.58;;;9.60;;
72517;SDS011;60540;51.178;6.738;2023-05-10T05:03:58;19.30;;;9.10;;
72517;SDS011;60540;51.178;6.738;2023-05-10T05:06:24;22.67;;;9.43;;
72517;SDS011;60540;51.178;6.738;2023-05-10T05:08:50;19.45;;;9.80;;
72517;SDS011;60540;51.178;6.738;2023-05-10T05:11:17;21.00;;;9.35;;
72517;SDS011;60540;51.178;6.738;2023-05-10T05:13:43;16.73;;;9.35;;
72517;SDS011;60540;51.178;6.738;2023-05-10T05:16:09;17.38;;;8.88;;
72517;SDS011;60540;51.178;6.738;2023-05-10T05:18:35;16.92;;;8.50;;
72517;SDS011;60540;51.178;6.738;2023-05-10T05:21:01;14.98;;;7.88;;
72517;SDS011;60540;51.178;6.738;2023-05-10T05:23:26;15.32;;;7.65;;
72517;SDS011;60540;51.178;6.738;2023-05-10T05:25:52;12.50;;;7.45;;
72517;SDS011;60540;51.178;6.738;2023-05-10T05:28:19;13.02;;;6.93;;
72517;SDS011;60540;51.178;6.738;2023-05-10T05:30:45;14.55;;;7.57;;
72517;SDS011;60540;51.178;6.738;2023-05-10T05:33:11;14.95;;;7.07;;
72517;SDS011;60540;51.178;6.738;2023-05-10T05:35:38;15.00;;;7.20;;
72517;SDS011;60540;51.178;6.738;2023-05-10T05:38:04;15.02;;;6.72;;
72517;SDS011;60540;51.178;6.738;2023-05-10T05:40:30;11.57;;;6.53;;
72517;SDS011;60540;51.178;6.738;2023-05-10T05:42:56;15.35;;;7.47;;
72517;SDS011;60540;51.178;6.738;2023-05-10T05:45:22;12.32;;;6.63;;
72517;SDS011;60540;51.178;6.738;2023-05-10T05:47:47;13.93;;;7.22;;
72517;SDS011;60540;51.178;6.738;2023-05-10T05:50:13;16.75;;;8.63;;
72517;SDS011;60540;51.178;6.738;2023-05-10T05:52:39;15.75;;;6.32;;
72517;SDS011;60540;51.178;6.738;2023-05-10T05:55:05;12.10;;;6.35;;
72517;SDS011;60540;51.178;6.738;2023-05-10T05:57:31;15.65;;;6.95;;
72517;SDS011;60540;51.178;6.738;2023-05-10T05:59:56;14.88;;;6.80;;
72517;SDS011;60540;51.178;6.738;2023-05-10T06:02:22;14.77;;;6.95;;
72517;SDS011;60540;51.178;6.738;2023-05-10T06:04:48;13.25;;;7.07;;
72517;SDS011;60540;51.178;6.738;2023-05-10T06:07:14;12.35;;;6.32;;
72517;SDS011;60540;51.178;6.738;2023-05-10T06:09:39;14.32;;;7.63;;
72517;SDS011;60540;51.178;6.738;2023-05-10T06:12:05;16.67;;;7.88;;
72517;SDS011;60540;51.178;6.738;2023-05-10T06:14:31;16.67;;;7.05;;
72517;SDS011;60540;51.178;6.738;2023-05-10T06:16:56;13.15;;;7.55;;
72517;SDS011;60540;51.178;6.738;2023-05-10T06:19:22;13.60;;;7.63;;
72517;SDS011;60540;51.178;6.738;2023-05-10T06:21:48;14.13;;;6.50;;
72517;SDS011;60540;51.178;6.738;2023-05-10T06:24:13;17.10;;;8.23;;
72517;SDS011;60540;51.178;6.738;2023-05-10T06:26:39;17.10;;;7.68;;
72517;SDS011;60540;51.178;6.738;2023-05-10T06:29:05;17.63;;;9.10;;
72517;SDS011;60540;51.178;6.738;2023-05-10T06:31:31;13.73;;;6.70;;
72517;SDS011;60540;51.178;6.738;2023-05-10T06:33:56;13.82;;;6.45;;
72517;SDS011;60540;51.178;6.738;2023-05-10T06:36:23;12.73;;;7.28;;
72517;SDS011;60540;51.178;6.738;2023-05-10T06:38:50;16.50;;;6.75;;
72517;SDS011;60540;51.178;6.738;2023-05-10T06:41:16;15.68;;;6.90;;
72517;SDS011;60540;51.178;6.738;2023-05-10T06:43:42;17.65;;;6.43;;
72517;SDS011;60540;51.178;6.738;2023-05-10T06:46:08;18.08;;;7.53;;
72517;SDS011;60540;51.178;6.738;2023-05-10T06:48:34;16.05;;;7.70;;
72517;SDS011;60540;51.178;6.738;2023-05-10T06:51:00;17.38;;;7.03;;
72517;SDS011;60540;51.178;6.738;2023-05-10T06:53:26;14.23;;;6.65;;
72517;SDS011;60540;51.178;6.738;2023-05-10T06:55:51;17.15;;;7.65;;
72517;SDS011;60540;51.178;6.738;2023-05-10T06:58:17;16.52;;;7.88;;
72517;SDS011;60540;51.178;6.738;2023-05-10T07:00:43;16.55;;;8.45;;
72517;SDS011;60540;51.178;6.738;2023-05-10T07:03:10;20.23;;;7.20;;
72517;SDS011;60540;51.178;6.738;2023-05-10T07:05:36;20.10;;;7.88;;
72517;SDS011;60540;51.178;6.738;2023-05-10T07:08:02;16.58;;;7.80;;
72517;SDS011;60540;51.178;6.738;2023-05-10T07:10:28;16.10;;;7.18;;
72517;SDS011;60540;51.178;6.738;2023-05-10T07:12:53;18.70;;;8.52;;
72517;SDS011;60540;51.178;6.738;2023-05-10T07:15:19;15.55;;;6.22;;
72517;SDS011;60540;51.178;6.738;2023-05-10T07:17:45;17.92;;;8.07;;
72517;SDS011;60540;51.178;6.738;2023-05-10T07:20:11;15.13;;;6.63;;
72517;SDS011;60540;51.178;6.738;2023-05-10T07:22:37;15.82;;;7.47;;
72517;SDS011;60540;51.178;6.738;2023-05-10T07:25:03;16.95;;;6.97;;
72517;SDS011;60540;51.178;6.738;2023-05-10T07:27:29;14.43;;;6.57;;
72517;SDS011;60540;51.178;6.738;2023-05-10T07:29:55;15.05;;;6.85;;
72517;SDS011;60540;51.178;6.738;2023-05-10T07:32:21;14.75;;;7.03;;
72517;SDS011;60540;51.178;6.738;2023-05-10T07:34:47;13.82;;;6.50;;
72517;SDS011;60540;51.178;6.738;2023-05-10T07:37:13;20.98;;;7.82;;
72517;SDS011;60540;51.178;6.738;2023-05-10T07:39:39;18.13;;;7.55;;
72517;SDS011;60540;51.178;6.738;2023-05-10T07:42:04;13.95;;;6.55;;
72517;SDS011;60540;51.178;6.738;2023-05-10T07:44:31;15.27;;;7.03;;
72517;SDS011;60540;51.178;6.738;2023-05-10T07:46:56;16.50;;;8.20;;
72517;SDS011;60540;51.178;6.738;2023-05-10T07:49:22;21.33;;;9.10;;
72517;SDS011;60540;51.178;6.738;2023-05-10T07:51:49;17.13;;;7.65;;
72517;SDS011;60540;51.178;6.738;2023-05-10T07:54:15;19.95;;;8.55;;
72517;SDS011;60540;51.178;6.738;2023-05-10T07:56:41;21.60;;;9.60;;
72517;SDS011;60540;51.178;6.738;2023-05-10T07:59:14;21.05;;;9.80;;
72517;SDS011;60540;51.178;6.738;2023-05-10T08:01:40;24.10;;;12.02;;
72517;SDS011;60540;51.178;6.738;2023-05-10T08:04:07;21.65;;;11.32;;
72517;SDS011;60540;51.178;6.738;2023-05-10T08:06:33;28.05;;;11.38;;
72517;SDS011;60540;51.178;6.738;2023-05-10T08:08:58;25.13;;;10.75;;
72517;SDS011;60540;51.178;6.738;2023-05-10T08:11:24;28.10;;;11.52;;
72517;SDS011;60540;51.178;6.738;2023-05-10T08:13:50;24.33;;;10.20;;
72517;SDS011;60540;51.178;6.738;2023-05-10T08:16:16;23.27;;;9.93;;
72517;SDS011;60540;51.178;6.738;2023-05-10T08:18:43;24.80;;;11.10;;
72517;SDS011;60540;51.178;6.738;2023-05-10T08:21:10;26.80;;;10.50;;
72517;SDS011;60540;51.178;6.738;2023-05-10T08:26:02;29.02;;;11.85;;
72517;SDS011;60540;51.178;6.738;2023-05-10T08:28:28;26.48;;;12.57;;
72517;SDS011;60540;51.178;6.738;2023-05-10T08:30:54;30.08;;;12.23;;
72517;SDS011;60540;51.178;6.738;2023-05-10T08:33:20;27.00;;;12.88;;
72517;SDS011;60540;51.178;6.738;2023-05-10T08:35:45;34.95;;;14.10;;
72517;SDS011;60540;51.178;6.738;2023-05-10T08:38:11;27.48;;;13.23;;
72517;SDS011;60540;51.178;6.738;2023-05-10T08:40:38;29.05;;;12.13;;
72517;SDS011;60540;51.178;6.738;2023-05-10T08:43:09;31.95;;;13.30;;
72517;SDS011;60540;51.178;6.738;2023-05-10T08:45:37;24.00;;;11.15;;
72517;SDS011;60540;51.178;6.738;2023-05-10T08:48:07;25.55;;;12.35;;
72517;SDS011;60540;51.178;6.738;2023-05-10T08:50:37;29.15;;;11.23;;
72517;SDS011;60540;51.178;6.738;2023-05-10T08:53:04;25.15;;;11.52;;
72517;SDS011;60540;51.178;6.738;2023-05-10T08:55:32;23.55;;;11.07;;
72517;SDS011;60540;51.178;6.738;2023-05-10T08:57:59;24.77;;;11.10;;
72517;SDS011;60540;51.178;6.738;2023-05-10T09:00:25;20.15;;;9.85;;
72517;SDS011;60540;51.178;6.738;2023-05-10T09:02:52;20.95;;;9.80;;
72517;SDS011;60540;51.178;6.738;2023-05-10T09:05:18;18.42;;;9.50;;
72517;SDS011;60540;51.178;6.738;2023-05-10T09:07:44;17.40;;;8.52;;
72517;SDS011;60540;51.178;6.738;2023-05-10T09:10:10;18.55;;;9.55;;
72517;SDS011;60540;51.178;6.738;2023-05-10T09:12:37;20.88;;;9.32;;
72517;SDS011;60540;51.178;6.738;2023-05-10T09:15:03;21.15;;;9.85;;
72517;SDS011;60540;51.178;6.738;2023-05-10T09:20:02;17.75;;;8.27;;
72517;SDS011;60540;51.178;6.738;2023-05-10T09:22:32;19.13;;;8.75;;
72517;SDS011;60540;51.178;6.738;2023-05-10T09:25:08;17.13;;;9.18;;
72517;SDS011;60540;51.178;6.738;2023-05-10T09:27:39;17.55;;;8.57;;
72517;SDS011;60540;51.178;6.738;2023-05-10T09:30:05;19.48;;;8.45;;
72517;SDS011;60540;51.178;6.738;2023-05-10T09:35:11;16.17;;;7.65;;
72517;SDS011;60540;51.178;6.738;2023-05-10T09:37:41;14.77;;;6.93;;
72517;SDS011;60540;51.178;6.738;2023-05-10T09:40:13;16.77;;;8.13;;
72517;SDS011;60540;51.178;6.738;2023-05-10T09:42:41;17.60;;;8.25;;
72517;SDS011;60540;51.178;6.738;2023-05-10T09:45:08;12.70;;;7.72;;
72517;SDS011;60540;51.178;6.738;2023-05-10T09:47:34;17.13;;;8.60;;
72517;SDS011;60540;51.178;6.738;2023-05-10T09:50:01;16.83;;;8.20;;
72517;SDS011;60540;51.178;6.738;2023-05-10T09:55:15;15.48;;;7.82;;
72517;SDS011;60540;51.178;6.738;2023-05-10T09:57:42;14.07;;;7.38;;
72517;SDS011;60540;51.178;6.738;2023-05-10T10:00:08;16.10;;;7.72;;
72517;SDS011;60540;51.178;6.738;2023-05-10T10:02:35;17.85;;;8.27;;
72517;SDS011;60540;51.178;6.738;2023-05-10T10:05:01;18.05;;;8.20;;
72517;SDS011;60540;51.178;6.738;2023-05-10T10:07:29;14.90;;;7.22;;
72517;SDS011;60540;51.178;6.738;2023-05-10T10:09:54;16.63;;;7.82;;
72517;SDS011;60540;51.178;6.738;2023-05-10T10:12:20;13.32;;;6.63;;
72517;SDS011;60540;51.178;6.738;2023-05-10T10:14:46;14.82;;;7.97;;
72517;SDS011;60540;51.178;6.738;2023-05-10T10:17:13;16.67;;;7.70;;
72517;SDS011;60540;51.178;6.738;2023-05-10T10:19:40;16.98;;;7.97;;
72517;SDS011;60540;51.178;6.738;2023-05-10T10:24:32;14.05;;;7.32;;
72517;SDS011;60540;51.178;6.738;2023-05-10T10:27:04;15.55;;;7.40;;
72517;SDS011;60540;51.178;6.738;2023-05-10T10:29:40;14.95;;;7.18;;
72517;SDS011;60540;51.178;6.738;2023-05-10T10:32:22;14.75;;;6.93;;
72517;SDS011;60540;51.178;6.738;2023-05-10T10:34:49;14.82;;;7.18;;
72517;SDS011;60540;51.178;6.738;2023-05-10T10:37:15;15.45;;;6.53;;
72517;SDS011;60540;51.178;6.738;2023-05-10T10:39:41;18.38;;;7.53;;
72517;SDS011;60540;51.178;6.738;2023-05-10T10:42:07;13.35;;;6.63;;
72517;SDS011;60540;51.178;6.738;2023-05-10T10:44:33;14.38;;;7.32;;
72517;SDS011;60540;51.178;6.738;2023-05-10T10:57:48;11.38;;;6.03;;
72517;SDS011;60540;51.178;6.738;2023-05-10T11:00:20;14.30;;;6.72;;
72517;SDS011;60540;51.178;6.738;2023-05-10T11:05:35;13.90;;;7.82;;
72517;SDS011;60540;51.178;6.738;2023-05-10T11:10:37;15.85;;;7.93;;
72517;SDS011;60540;51.178;6.738;2023-05-10T11:13:07;14.85;;;7.82;;
72517;SDS011;60540;51.178;6.738;2023-05-10T11:15:35;14.05;;;7.50;;
72517;SDS011;60540;51.178;6.738;2023-05-10T11:20:49;15.65;;;7.97;;
72517;SDS011;60540;51.178;6.738;2023-05-10T11:23:21;15.35;;;7.88;;
72517;SDS011;60540;51.178;6.738;2023-05-10T11:25:48;14.70;;;7.25;;
72517;SDS011;60540;51.178;6.738;2023-05-10T11:28:14;17.15;;;8.00;;
72517;SDS011;60540;51.178;6.738;2023-05-10T11:30:40;15.43;;;8.25;;
72517;SDS011;60540;51.178;6.738;2023-05-10T11:35:39;12.75;;;6.80;;
72517;SDS011;60540;51.178;6.738;2023-05-10T11:38:06;13.50;;;6.70;;
72517;SDS011;60540;51.178;6.738;2023-05-10T11:40:32;11.93;;;6.65;;
72517;SDS011;60540;51.178;6.738;2023-05-10T11:42:59;13.32;;;7.18;;
72517;SDS011;60540;51.178;6.738;2023-05-10T11:45:25;13.32;;;7.53;;
72517;SDS011;60540;51.178;6.738;2023-05-10T11:47:51;14.85;;;7.47;;
72517;SDS011;60540;51.178;6.738;2023-05-10T11:50:17;17.63;;;8.93;;
72517;SDS011;60540;51.178;6.738;2023-05-10T11:52:43;13.77;;;7.43;;
72517;SDS011;60540;51.178;6.738;2023-05-10T11:55:08;14.75;;;8.18;;
72517;SDS011;60540;51.178;6.738;2023-05-10T11:57:35;14.07;;;7.35;;
72517;SDS011;60540;51.178;6.738;2023-05-10T12:00:01;14.20;;;7.35;;
72517;SDS011;60540;51.178;6.738;2023-05-10T12:02:29;17.48;;;8.05;;
72517;SDS011;60540;51.178;6.738;2023-05-10T12:04:55;16.52;;;8.15;;
72517;SDS011;60540;51.178;6.738;2023-05-10T12:07:21;17.70;;;8.50;;
72517;SDS011;60540;51.178;6.738;2023-05-10T12:10:03;14.88;;;7.78;;
72517;SDS011;60540;51.178;6.738;2023-05-10T12:12:39;17.83;;;8.65;;
72517;SDS011;60540;51.178;6.738;2023-05-10T12:15:25;17.13;;;8.88;;
72517;SDS011;60540;51.178;6.738;2023-05-10T12:17:52;16.77;;;8.52;;
72517;SDS011;60540;51.178;6.738;2023-05-10T12:20:22;17.60;;;8.45;;
72517;SDS011;60540;51.178;6.738;2023-05-10T12:22:56;19.27;;;10.00;;
72517;SDS011;60540;51.178;6.738;2023-05-10T12:25:23;18.75;;;10.82;;
72517;SDS011;60540;51.178;6.738;2023-05-10T12:27:53;19.20;;;9.95;;
72517;SDS011;60540;51.178;6.738;2023-05-10T12:30:21;17.25;;;8.85;;
72517;SDS011;60540;51.178;6.738;2023-05-10T12:32:48;18.85;;;10.02;;
72517;SDS011;60540;51.178;6.738;2023-05-10T12:35:14;19.65;;;9.00;;
72517;SDS011;60540;51.178;6.738;2023-05-10T12:37:41;16.33;;;9.10;;
72517;SDS011;60540;51.178;6.738;2023-05-10T12:40:08;19.17;;;9.20;;
72517;SDS011;60540;51.178;6.738;2023-05-10T12:42:36;18.85;;;9.50;;
72517;SDS011;60540;51.178;6.738;2023-05-10T12:45:02;17.80;;;9.20;;
72517;SDS011;60540;51.178;6.738;2023-05-10T12:47:29;17.40;;;9.13;;
72517;SDS011;60540;51.178;6.738;2023-05-10T12:49:55;17.95;;;9.70;;
72517;SDS011;60540;51.178;6.738;2023-05-10T12:52:21;19.65;;;9.63;;
72517;SDS011;60540;51.178;6.738;2023-05-10T12:54:46;18.42;;;9.02;;
72517;SDS011;60540;51.178;6.738;2023-05-10T12:57:12;18.70;;;9.65;;
72517;SDS011;60540;51.178;6.738;2023-05-10T12:59:38;17.40;;;8.93;;
72517;SDS011;60540;51.178;6.738;2023-05-10T13:02:05;15.40;;;7.88;;
72517;SDS011;60540;51.178;6.738;2023-05-10T13:04:31;16.25;;;8.30;;
72517;SDS011;60540;51.178;6.738;2023-05-10T13:06:57;15.68;;;9.00;;
72517;SDS011;60540;51.178;6.738;2023-05-10T13:09:24;14.60;;;8.05;;
72517;SDS011;60540;51.178;6.738;2023-05-10T13:11:51;15.13;;;7.80;;
72517;SDS011;60540;51.178;6.738;2023-05-10T13:14:18;14.48;;;8.23;;
72517;SDS011;60540;51.178;6.738;2023-05-10T13:16:46;16.10;;;7.88;;
72517;SDS011;60540;51.178;6.738;2023-05-10T13:19:12;13.30;;;6.93;;
72517;SDS011;60540;51.178;6.738;2023-05-10T13:24:06;11.57;;;6.97;;
72517;SDS011;60540;51.178;6.738;2023-05-10T13:26:32;12.73;;;6.18;;
72517;SDS011;60540;51.178;6.738;2023-05-10T13:28:58;13.68;;;6.45;;
72517;SDS011;60540;51.178;6.738;2023-05-10T13:31:24;10.75;;;6.03;;
72517;SDS011;60540;51.178;6.738;2023-05-10T13:33:50;10.60;;;5.88;;
72517;SDS011;60540;51.178;6.738;2023-05-10T13:36:16;10.75;;;5.30;;
72517;SDS011;60540;51.178;6.738;2023-05-10T13:38:41;9.63;;;5.13;;
72517;SDS011;60540;51.178;6.738;2023-05-10T13:41:07;9.95;;;5.38;;
72517;SDS011;60540;51.178;6.738;2023-05-10T13:43:33;11.73;;;5.65;;
72517;SDS011;60540;51.178;6.738;2023-05-10T13:45:59;11.85;;;5.95;;
72517;SDS011;60540;51.178;6.738;2023-05-10T13:48:24;12.63;;;6.13;;
72517;SDS011;60540;51.178;6.738;2023-05-10T13:50:50;10.32;;;5.38;;
72517;SDS011;60540;51.178;6.738;2023-05-10T13:53:16;11.88;;;5.97;;
72517;SDS011;60540;51.178;6.738;2023-05-10T13:55:41;12.02;;;6.38;;
72517;SDS011;60540;51.178;6.738;2023-05-10T13:58:07;11.73;;;5.32;;
72517;SDS011;60540;51.178;6.738;2023-05-10T14:00:33;11.50;;;5.70;;
72517;SDS011;60540;51.178;6.738;2023-05-10T14:02:59;12.77;;;6.03;;
72517;SDS011;60540;51.178;6.738;2023-05-10T14:05:24;9.68;;;5.25;;
72517;SDS011;60540;51.178;6.738;2023-05-10T14:07:50;9.30;;;4.82;;
72517;SDS011;60540;51.178;6.738;2023-05-10T14:10:16;10.43;;;5.85;;
72517;SDS011;60540;51.178;6.738;2023-05-10T14:12:42;9.63;;;5.10;;
72517;SDS011;60540;51.178;6.738;2023-05-10T14:15:08;9.43;;;4.60;;
72517;SDS011;60540;51.178;6.738;2023-05-10T14:17:35;11.13;;;5.03;;
72517;SDS011;60540;51.178;6.738;2023-05-10T14:20:01;9.30;;;4.03;;
72517;SDS011;60540;51.178;6.738;2023-05-10T14:22:27;9.65;;;4.25;;
72517;SDS011;60540;51.178;6.738;2023-05-10T14:24:53;8.13;;;3.83;;
72517;SDS011;60540;51.178;6.738;2023-05-10T14:27:19;7.90;;;3.38;;
72517;SDS011;60540;51.178;6.738;2023-05-10T14:29:45;8.93;;;4.68;;
72517;SDS011;60540;51.178;6.738;2023-05-10T14:32:10;8.57;;;3.88;;
72517;SDS011;60540;51.178;6.738;2023-05-10T14:34:36;8.18;;;4.03;;
72517;SDS011;60540;51.178;6.738;2023-05-10T14:37:02;7.65;;;3.78;;
72517;SDS011;60540;51.178;6.738;2023-05-10T14:39:28;9.07;;;3.97;;
72517;SDS011;60540;51.178;6.738;2023-05-10T14:41:56;7.75;;;4.07;;
72517;SDS011;60540;51.178;6.738;2023-05-10T14:44:22;9.40;;;4.28;;
72517;SDS011;60540;51.178;6.738;2023-05-10T14:46:48;7.63;;;3.50;;
72517;SDS011;60540;51.178;6.738;2023-05-10T14:49:15;8.98;;;4.20;;
72517;SDS011;60540;51.178;6.738;2023-05-10T14:51:40;7.78;;;3.70;;
72517;SDS011;60540;51.178;6.738;2023-05-10T14:54:06;6.50;;;3.38;;
72517;SDS011;60540;51.178;6.738;2023-05-10T14:56:32;7.72;;;4.00;;
72517;SDS011;60540;51.178;6.738;2023-05-10T14:58:58;6.35;;;3.75;;
72517;SDS011;60540;51.178;6.738;2023-05-10T15:01:24;7.60;;;3.35;;
72517;SDS011;60540;51.178;6.738;2023-05-10T15:03:50;7.30;;;3.70;;
72517;SDS011;60540;51.178;6.738;2023-05-10T15:06:16;6.65;;;3.40;;
72517;SDS011;60540;51.178;6.738;2023-05-10T15:08:42;6.95;;;3.33;;
72517;SDS011;60540;51.178;6.738;2023-05-10T15:11:08;7.07;;;3.83;;
72517;SDS011;60540;51.178;6.738;2023-05-10T15:13:34;6.93;;;3.60;;
72517;SDS011;60540;51.178;6.738;2023-05-10T15:16:00;7.88;;;4.13;;
72517;SDS011;60540;51.178;6.738;2023-05-10T15:18:26;7.38;;;3.95;;
72517;SDS011;60540;51.178;6.738;2023-05-10T15:20:52;9.05;;;5.13;;
72517;SDS011;60540;51.178;6.738;2023-05-10T15:23:17;10.85;;;5.90;;
72517;SDS011;60540;51.178;6.738;2023-05-10T15:25:43;7.40;;;4.07;;
72517;SDS011;60540;51.178;6.738;2023-05-10T15:28:09;8.18;;;4.22;;
72517;SDS011;60540;51.178;6.738;2023-05-10T15:30:35;7.57;;;4.07;;
72517;SDS011;60540;51.178;6.738;2023-05-10T15:33:01;7.63;;;3.85;;
72517;SDS011;60540;51.178;6.738;2023-05-10T15:35:26;7.63;;;4.05;;
72517;SDS011;60540;51.178;6.738;2023-05-10T15:37:52;7.72;;;4.32;;
72517;SDS011;60540;51.178;6.738;2023-05-10T15:40:18;8.82;;;4.63;;
72517;SDS011;60540;51.178;6.738;2023-05-10T15:45:10;7.72;;;3.72;;
72517;SDS011;60540;51.178;6.738;2023-05-10T15:47:36;7.32;;;3.78;;
72517;SDS011;60540;51.178;6.738;2023-05-10T15:50:05;7.32;;;3.83;;
72517;SDS011;60540;51.178;6.738;2023-05-10T15:52:31;8.20;;;4.25;;
72517;SDS011;60540;51.178;6.738;2023-05-10T15:54:57;6.53;;;4.00;;
72517;SDS011;60540;51.178;6.738;2023-05-10T15:57:23;7.97;;;4.28;;
72517;SDS011;60540;51.178;6.738;2023-05-10T15:59:48;7.65;;;4.13;;
72517;SDS011;60540;51.178;6.738;2023-05-10T16:02:15;6.10;;;3.70;;
72517;SDS011;60540;51.178;6.738;2023-05-10T16:04:41;6.43;;;3.20;;
72517;SDS011;60540;51.178;6.738;2023-05-10T16:07:09;8.32;;;4.40;;
72517;SDS011;60540;51.178;6.738;2023-05-10T16:09:34;8.80;;;3.95;;
72517;SDS011;60540;51.178;6.738;2023-05-10T16:12:00;7.47;;;3.65;;
72517;SDS011;60540;51.178;6.738;2023-05-10T16:14:26;8.13;;;3.45;;
72517;SDS011;60540;51.178;6.738;2023-05-10T16:16:52;8.07;;;3.67;;
72517;SDS011;60540;51.178;6.738;2023-05-10T16:19:18;6.95;;;3.78;;